Empire State — WDE4431 — position and weather

sailwx.info

Track history (hours):
 
Tides and Currents Weather Stations Pressure Air Temp Water Temp Dewpoint Dewpoint Depression Visibility Wind Speed Wind Dir Waves Ship Positions

Empire State

Owner: Crowley Petroleum Services, Jacksonville, FL. More information available from US FCC via Universal Licensing System and Coast Guard Vessel Documentation Center.

Last reported at 2016-May-04 13:29 UTC. Time now 2016-May-04 13:36 UTC.
Position N 32°42' W 117°14'.

Length 183 m; draft 9.9 m.

Type: Military. MMSI: 367353080.

Date/timePositionNaut miles runAvg speedWind from/ knotsBaromVisibWave heightAir tempDewpointWater temp
2016-May-04 13:29N 32°42' W 117°14'0 0.0
2016-May-04 12:29N 32°42' W 117°14'0 0.0
2016-May-04 11:29N 32°42' W 117°14'0 0.0
2016-May-04 10:29N 32°42' W 117°14'0 0.0
2016-May-04 08:23N 32°42' W 117°14'0 0.0
2016-May-04 06:29N 32°42' W 117°14'0 0.0
2016-May-04 05:29N 32°42' W 117°14'0 0.0
2016-May-04 04:23N 32°42' W 117°14'0 0.0
2016-May-04 03:23N 32°42' W 117°14'0 0.0
2016-May-04 00:23N 32°42' W 117°14'0 0.0
2016-May-03 20:29N 32°42' W 117°14'0 0.0
2016-May-03 19:17N 32°42' W 117°14'0 0.0
2016-May-03 18:23N 32°42' W 117°14'0 0.0
2016-May-03 17:17N 32°42' W 117°14'0 0.0
2016-May-03 15:33N 32°42' W 117°14'5 5.3
2016-May-03 14:33N 32°37' W 117°15'6 6.3
2016-May-03 13:33N 32°38' W 117°23'6 5.9
2016-May-03 12:33N 32°39' W 117°29'7 7.5
2016-May-03 11:33N 32°40' W 117°38'8 7.9
2016-May-03 10:33N 32°45' W 117°46'9 8.9
2016-May-03 09:33N 32°53' W 117°51'9 8.7
2016-May-03 08:33N 33°00' W 117°56'8 8.0
2016-May-03 07:33N 33°08' W 118°00'5 5.3
2016-May-03 06:33N 33°12' W 118°02'5 5.0
2016-May-03 05:33N 33°17' W 118°05'5 4.8
2016-May-03 04:33N 33°21' W 118°07'5 5.5
2016-May-03 03:33N 33°27' W 118°09'6 5.6
2016-May-03 02:33N 33°32' W 118°11'7 7.0
2016-May-03 01:33N 33°39' W 118°10'3 2.8
2016-May-03 00:31N 33°41' W 118°07'0 0.0
2016-May-02 23:28N 33°41' W 118°07'0 0.0
2016-May-02 22:31N 33°41' W 118°07'0 0.1
2016-May-02 21:31N 33°41' W 118°07'0 0.0
2016-May-02 20:31N 33°41' W 118°07'0 0.0
2016-May-02 19:31N 33°41' W 118°07'0 0.0
2016-May-02 18:31N 33°41' W 118°07'0 0.1
2016-May-02 17:31N 33°41' W 118°08'5 5.4
2016-May-02 16:33N 33°40' W 118°14'6 5.7
2016-May-02 15:33N 33°45' W 118°17'0 0.1
2016-May-02 14:32N 33°45' W 118°17'0 0.0
2016-May-02 13:32N 33°45' W 118°17'0 0.0
2016-May-02 12:32N 33°45' W 118°17'0 0.0
2016-May-02 11:32N 33°45' W 118°17'0 0.0
2016-May-02 10:32N 33°45' W 118°17'0 0.0
2016-May-02 09:32N 33°45' W 118°17'0 0.0
2016-May-02 08:32N 33°45' W 118°17'0 0.0
2016-May-02 07:32N 33°45' W 118°17'0 0.0
2016-May-02 06:32N 33°45' W 118°17'0 0.0
2016-May-02 05:29N 33°45' W 118°17'0 0.0
2016-May-02 04:32N 33°45' W 118°17'0 0.0
2016-May-02 03:29N 33°45' W 118°17'0 0.0
2016-May-02 02:29N 33°45' W 118°17'0 0.0
2016-May-02 01:23N 33°45' W 118°17'0 0.0
2016-May-02 00:23N 33°45' W 118°17'0 0.0
2016-May-01 23:23N 33°45' W 118°17'0 0.0
2016-May-01 22:32N 33°45' W 118°17'0 0.0
2016-May-01 21:32N 33°45' W 118°17'0 0.0
2016-May-01 20:29N 33°45' W 118°17'0 0.0
2016-May-01 19:29N 33°45' W 118°17'0 0.0
2016-May-01 18:32N 33°45' W 118°17'0 0.0
2016-May-01 17:32N 33°45' W 118°17'0 0.0
2016-May-01 16:32N 33°45' W 118°17'0 0.0
2016-May-01 15:32N 33°45' W 118°17'0 0.0
2016-May-01 14:32N 33°45' W 118°17'0 0.0
2016-May-01 13:17N 33°45' W 118°17'1 0.8
2016-May-01 12:34N 33°45' W 118°16'3 2.9
2016-May-01 11:33N 33°44' W 118°13'0 0.1
2016-May-01 10:32N 33°44' W 118°13'0 0.0
2016-May-01 09:32N 33°44' W 118°13'0 0.1
2016-May-01 08:32N 33°44' W 118°13'0 0.0
2016-May-01 07:32N 33°44' W 118°13'0 0.1
2016-May-01 06:32N 33°44' W 118°13'0 0.0
2016-May-01 05:32N 33°44' W 118°13'0 0.0
2016-May-01 04:29N 33°44' W 118°13'0 0.0
2016-May-01 03:32N 33°44' W 118°13'0 0.0
2016-May-01 02:32N 33°44' W 118°13'0 0.0
2016-May-01 01:32N 33°44' W 118°13'0 0.0
2016-May-01 00:32N 33°44' W 118°13'0 0.0
2016-Apr-30 23:32N 33°44' W 118°13'0 0.0
2016-Apr-30 22:32N 33°44' W 118°13'0 0.0
2016-Apr-30 21:32N 33°44' W 118°13'0 0.0
2016-Apr-30 20:32N 33°44' W 118°13'0 0.0
2016-Apr-30 19:32N 33°44' W 118°13'0 0.0
2016-Apr-30 18:32N 33°44' W 118°13'0 0.0
2016-Apr-30 17:32N 33°44' W 118°13'0 0.0
2016-Apr-30 16:32N 33°44' W 118°13'0 0.0
2016-Apr-30 15:29N 33°44' W 118°13'0 0.1
2016-Apr-30 14:32N 33°44' W 118°13'0 0.1
2016-Apr-30 13:32N 33°44' W 118°13'0 0.0
2016-Apr-30 12:32N 33°44' W 118°13'0 0.0
2016-Apr-30 11:32N 33°44' W 118°13'0 0.0
2016-Apr-30 10:32N 33°44' W 118°13'0 0.0
2016-Apr-30 09:29N 33°44' W 118°13'0 0.0
2016-Apr-30 08:32N 33°44' W 118°13'0 0.0
2016-Apr-30 07:32N 33°44' W 118°13'0 0.0
2016-Apr-30 06:32N 33°44' W 118°13'0 0.0
2016-Apr-30 05:32N 33°44' W 118°13'0 0.0
2016-Apr-30 04:32N 33°44' W 118°13'0 0.0
2016-Apr-30 03:32N 33°44' W 118°13'0 0.0
2016-Apr-30 02:32N 33°44' W 118°13'0 0.0
2016-Apr-30 01:32N 33°44' W 118°13'0 0.0
2016-Apr-30 00:29N 33°44' W 118°13'0 0.0
2016-Apr-29 23:32N 33°44' W 118°13'0 0.1
2016-Apr-29 22:32N 33°44' W 118°13'0 0.0
2016-Apr-29 21:32N 33°44' W 118°13'0 0.0
2016-Apr-29 20:26N 33°44' W 118°13'0 0.0
2016-Apr-29 19:32N 33°44' W 118°13'0 0.1
2016-Apr-29 18:32N 33°44' W 118°13'0 0.1
2016-Apr-29 17:29N 33°44' W 118°13'0 0.1
2016-Apr-29 16:32N 33°44' W 118°13'0 0.0
2016-Apr-29 15:20N 33°44' W 118°13'0 0.0
2016-Apr-29 14:32N 33°44' W 118°13'0 0.1
2016-Apr-29 13:26N 33°44' W 118°13'0 0.0
2016-Apr-29 12:32N 33°44' W 118°13'0 0.1
2016-Apr-29 11:32N 33°44' W 118°13'0 0.0
2016-Apr-29 10:32N 33°44' W 118°13'0 0.0
2016-Apr-29 09:32N 33°44' W 118°13'0 0.0
2016-Apr-29 08:32N 33°44' W 118°13'0 0.2
2016-Apr-29 07:32N 33°44' W 118°13'0 0.0
2016-Apr-29 06:26N 33°44' W 118°13'0 0.0
2016-Apr-29 05:32N 33°44' W 118°13'0 0.0
2016-Apr-29 04:32N 33°44' W 118°13'0 0.0
2016-Apr-29 03:32N 33°44' W 118°13'0 0.0
2016-Apr-29 02:29N 33°44' W 118°13'0 0.0
2016-Apr-29 01:32N 33°44' W 118°13'0 0.0
2016-Apr-29 00:32N 33°44' W 118°13'0 0.0
2016-Apr-28 23:32N 33°44' W 118°13'0 0.0
2016-Apr-28 22:32N 33°44' W 118°13'0 0.0
2016-Apr-28 21:32N 33°44' W 118°13'0 0.0
2016-Apr-28 20:32N 33°44' W 118°13'0 0.0
2016-Apr-28 19:32N 33°44' W 118°13'0 0.0
2016-Apr-28 18:29N 33°44' W 118°13'0 0.0
2016-Apr-28 17:32N 33°44' W 118°13'0 0.3
2016-Apr-28 16:33N 33°43' W 118°13'3 3.5
2016-Apr-28 15:33N 33°45' W 118°17'0 0.1
2016-Apr-28 14:32N 33°45' W 118°17'0 0.0
2016-Apr-28 13:32N 33°45' W 118°17'0 0.0
2016-Apr-28 12:32N 33°45' W 118°17'0 0.0
2016-Apr-28 11:32N 33°45' W 118°17'0 0.0
2016-Apr-28 10:29N 33°45' W 118°17'0 0.0
2016-Apr-28 09:32N 33°45' W 118°17'0 0.0
2016-Apr-28 08:32N 33°45' W 118°17'0 0.0
2016-Apr-28 07:26N 33°45' W 118°17'0 0.0
2016-Apr-28 06:32N 33°45' W 118°17'0 0.0
2016-Apr-28 03:32N 33°45' W 118°17'0 0.0
2016-Apr-28 02:29N 33°45' W 118°17'0 0.0
2016-Apr-27 13:17N 33°45' W 118°17'0 0.0
2016-Apr-27 12:34N 33°45' W 118°17'3 3.1
2016-Apr-27 11:33N 33°43' W 118°15'7 6.9
2016-Apr-27 10:33N 33°36' W 118°18'1312.7
2016-Apr-27 09:33N 33°37' W 118°33'1312.1
2016-Apr-27 08:29N 33°37' W 118°48'1111.9
2016-Apr-27 07:33N 33°38' W 119°02'6312.2
2016-Apr-27 02:26N 33°36' W 120°17'27211.3
2016-Apr-26 02:17N 37°29' W 123°10'810.5
2016-Apr-26 01:33N 37°35' W 123°03'1110.3
2016-Apr-26 00:32N 37°41' W 122°52'1010.1
2016-Apr-25 23:33N 37°43' W 122°40'9 8.7
2016-Apr-25 22:33N 37°48' W 122°31'7 6.6
2016-Apr-25 21:33N 37°54' W 122°27'9 8.6
2016-Apr-25 20:33N 38°02' W 122°22'  
Track history (hours):
 
Tides and Currents Weather Stations Pressure Air Temp Water Temp Dewpoint Dewpoint Depression Visibility Wind Speed Wind Dir Waves Ship Positions

Empire State

Owner: Crowley Petroleum Services, Jacksonville, FL. More information available from US FCC via Universal Licensing System and Coast Guard Vessel Documentation Center.

Last reported at 2016-May-04 13:29 UTC. Time now 2016-May-04 13:36 UTC.
Position N 32°42' W 117°14'.

Length 183 m; draft 9.9 m.

Type: Military. MMSI: 367353080.

Date/timePositionNaut miles runAvg speedWind from/ knotsBaromVisibWave heightAir tempDewpointWater temp
2016-May-04 13:29N 32°42' W 117°14'0 0.0
2016-May-04 12:29N 32°42' W 117°14'0 0.0
2016-May-04 11:29N 32°42' W 117°14'0 0.0
2016-May-04 10:29N 32°42' W 117°14'0 0.0
2016-May-04 08:23N 32°42' W 117°14'0 0.0
2016-May-04 06:29N 32°42' W 117°14'0 0.0
2016-May-04 05:29N 32°42' W 117°14'0 0.0
2016-May-04 04:23N 32°42' W 117°14'0 0.0
2016-May-04 03:23N 32°42' W 117°14'0 0.0
2016-May-04 00:23N 32°42' W 117°14'0 0.0
2016-May-03 20:29N 32°42' W 117°14'0 0.0
2016-May-03 19:17N 32°42' W 117°14'0 0.0
2016-May-03 18:23N 32°42' W 117°14'0 0.0
2016-May-03 17:17N 32°42' W 117°14'0 0.0
2016-May-03 15:33N 32°42' W 117°14'5 5.3
2016-May-03 14:33N 32°37' W 117°15'6 6.3
2016-May-03 13:33N 32°38' W 117°23'6 5.9
2016-May-03 12:33N 32°39' W 117°29'7 7.5
2016-May-03 11:33N 32°40' W 117°38'8 7.9
2016-May-03 10:33N 32°45' W 117°46'9 8.9
2016-May-03 09:33N 32°53' W 117°51'9 8.7
2016-May-03 08:33N 33°00' W 117°56'8 8.0
2016-May-03 07:33N 33°08' W 118°00'5 5.3
2016-May-03 06:33N 33°12' W 118°02'5 5.0
2016-May-03 05:33N 33°17' W 118°05'5 4.8
2016-May-03 04:33N 33°21' W 118°07'5 5.5
2016-May-03 03:33N 33°27' W 118°09'6 5.6
2016-May-03 02:33N 33°32' W 118°11'7 7.0
2016-May-03 01:33N 33°39' W 118°10'3 2.8
2016-May-03 00:31N 33°41' W 118°07'0 0.0
2016-May-02 23:28N 33°41' W 118°07'0 0.0
2016-May-02 22:31N 33°41' W 118°07'0 0.1
2016-May-02 21:31N 33°41' W 118°07'0 0.0
2016-May-02 20:31N 33°41' W 118°07'0 0.0
2016-May-02 19:31N 33°41' W 118°07'0 0.0
2016-May-02 18:31N 33°41' W 118°07'0 0.1
2016-May-02 17:31N 33°41' W 118°08'5 5.4
2016-May-02 16:33N 33°40' W 118°14'6 5.7
2016-May-02 15:33N 33°45' W 118°17'0 0.1
2016-May-02 14:32N 33°45' W 118°17'0 0.0
2016-May-02 13:32N 33°45' W 118°17'0 0.0
2016-May-02 12:32N 33°45' W 118°17'0 0.0
2016-May-02 11:32N 33°45' W 118°17'0 0.0
2016-May-02 10:32N 33°45' W 118°17'0 0.0
2016-May-02 09:32N 33°45' W 118°17'0 0.0
2016-May-02 08:32N 33°45' W 118°17'0 0.0
2016-May-02 07:32N 33°45' W 118°17'0 0.0
2016-May-02 06:32N 33°45' W 118°17'0 0.0
2016-May-02 05:29N 33°45' W 118°17'0 0.0
2016-May-02 04:32N 33°45' W 118°17'0 0.0
2016-May-02 03:29N 33°45' W 118°17'0 0.0
2016-May-02 02:29N 33°45' W 118°17'0 0.0
2016-May-02 01:23N 33°45' W 118°17'0 0.0
2016-May-02 00:23N 33°45' W 118°17'0 0.0
2016-May-01 23:23N 33°45' W 118°17'0 0.0
2016-May-01 22:32N 33°45' W 118°17'0 0.0
2016-May-01 21:32N 33°45' W 118°17'0 0.0
2016-May-01 20:29N 33°45' W 118°17'0 0.0
2016-May-01 19:29N 33°45' W 118°17'0 0.0
2016-May-01 18:32N 33°45' W 118°17'0 0.0
2016-May-01 17:32N 33°45' W 118°17'0 0.0
2016-May-01 16:32N 33°45' W 118°17'0 0.0
2016-May-01 15:32N 33°45' W 118°17'0 0.0
2016-May-01 14:32N 33°45' W 118°17'0 0.0
2016-May-01 13:17N 33°45' W 118°17'1 0.8
2016-May-01 12:34N 33°45' W 118°16'3 2.9
2016-May-01 11:33N 33°44' W 118°13'0 0.1
2016-May-01 10:32N 33°44' W 118°13'0 0.0
2016-May-01 09:32N 33°44' W 118°13'0 0.1
2016-May-01 08:32N 33°44' W 118°13'0 0.0
2016-May-01 07:32N 33°44' W 118°13'0 0.1
2016-May-01 06:32N 33°44' W 118°13'0 0.0
2016-May-01 05:32N 33°44' W 118°13'0 0.0
2016-May-01 04:29N 33°44' W 118°13'0 0.0
2016-May-01 03:32N 33°44' W 118°13'0 0.0
2016-May-01 02:32N 33°44' W 118°13'0 0.0
2016-May-01 01:32N 33°44' W 118°13'0 0.0
2016-May-01 00:32N 33°44' W 118°13'0 0.0
2016-Apr-30 23:32N 33°44' W 118°13'0 0.0
2016-Apr-30 22:32N 33°44' W 118°13'0 0.0
2016-Apr-30 21:32N 33°44' W 118°13'0 0.0
2016-Apr-30 20:32N 33°44' W 118°13'0 0.0
2016-Apr-30 19:32N 33°44' W 118°13'0 0.0
2016-Apr-30 18:32N 33°44' W 118°13'0 0.0
2016-Apr-30 17:32N 33°44' W 118°13'0 0.0
2016-Apr-30 16:32N 33°44' W 118°13'0 0.0
2016-Apr-30 15:29N 33°44' W 118°13'0 0.1
2016-Apr-30 14:32N 33°44' W 118°13'0 0.1
2016-Apr-30 13:32N 33°44' W 118°13'0 0.0
2016-Apr-30 12:32N 33°44' W 118°13'0 0.0
2016-Apr-30 11:32N 33°44' W 118°13'0 0.0
2016-Apr-30 10:32N 33°44' W 118°13'0 0.0
2016-Apr-30 09:29N 33°44' W 118°13'0 0.0
2016-Apr-30 08:32N 33°44' W 118°13'0 0.0
2016-Apr-30 07:32N 33°44' W 118°13'0 0.0
2016-Apr-30 06:32N 33°44' W 118°13'0 0.0
2016-Apr-30 05:32N 33°44' W 118°13'0 0.0
2016-Apr-30 04:32N 33°44' W 118°13'0 0.0
2016-Apr-30 03:32N 33°44' W 118°13'0 0.0
2016-Apr-30 02:32N 33°44' W 118°13'0 0.0
2016-Apr-30 01:32N 33°44' W 118°13'0 0.0
2016-Apr-30 00:29N 33°44' W 118°13'0 0.0
2016-Apr-29 23:32N 33°44' W 118°13'0 0.1
2016-Apr-29 22:32N 33°44' W 118°13'0 0.0
2016-Apr-29 21:32N 33°44' W 118°13'0 0.0
2016-Apr-29 20:26N 33°44' W 118°13'0 0.0
2016-Apr-29 19:32N 33°44' W 118°13'0 0.1
2016-Apr-29 18:32N 33°44' W 118°13'0 0.1
2016-Apr-29 17:29N 33°44' W 118°13'0 0.1
2016-Apr-29 16:32N 33°44' W 118°13'0 0.0
2016-Apr-29 15:20N 33°44' W 118°13'0 0.0
2016-Apr-29 14:32N 33°44' W 118°13'0 0.1
2016-Apr-29 13:26N 33°44' W 118°13'0 0.0
2016-Apr-29 12:32N 33°44' W 118°13'0 0.1
2016-Apr-29 11:32N 33°44' W 118°13'0 0.0
2016-Apr-29 10:32N 33°44' W 118°13'0 0.0
2016-Apr-29 09:32N 33°44' W 118°13'0 0.0
2016-Apr-29 08:32N 33°44' W 118°13'0 0.2
2016-Apr-29 07:32N 33°44' W 118°13'0 0.0
2016-Apr-29 06:26N 33°44' W 118°13'0 0.0
2016-Apr-29 05:32N 33°44' W 118°13'0 0.0
2016-Apr-29 04:32N 33°44' W 118°13'0 0.0
2016-Apr-29 03:32N 33°44' W 118°13'0 0.0
2016-Apr-29 02:29N 33°44' W 118°13'0 0.0
2016-Apr-29 01:32N 33°44' W 118°13'0 0.0
2016-Apr-29 00:32N 33°44' W 118°13'0 0.0
2016-Apr-28 23:32N 33°44' W 118°13'0 0.0
2016-Apr-28 22:32N 33°44' W 118°13'0 0.0
2016-Apr-28 21:32N 33°44' W 118°13'0 0.0
2016-Apr-28 20:32N 33°44' W 118°13'0 0.0
2016-Apr-28 19:32N 33°44' W 118°13'0 0.0
2016-Apr-28 18:29N 33°44' W 118°13'0 0.0
2016-Apr-28 17:32N 33°44' W 118°13'0 0.3
2016-Apr-28 16:33N 33°43' W 118°13'3 3.5
2016-Apr-28 15:33N 33°45' W 118°17'0 0.1
2016-Apr-28 14:32N 33°45' W 118°17'0 0.0
2016-Apr-28 13:32N 33°45' W 118°17'0 0.0
2016-Apr-28 12:32N 33°45' W 118°17'0 0.0
2016-Apr-28 11:32N 33°45' W 118°17'0 0.0
2016-Apr-28 10:29N 33°45' W 118°17'0 0.0
2016-Apr-28 09:32N 33°45' W 118°17'0 0.0
2016-Apr-28 08:32N 33°45' W 118°17'0 0.0
2016-Apr-28 07:26N 33°45' W 118°17'0 0.0
2016-Apr-28 06:32N 33°45' W 118°17'0 0.0
2016-Apr-28 03:32N 33°45' W 118°17'0 0.0
2016-Apr-28 02:29N 33°45' W 118°17'0 0.0
2016-Apr-27 13:17N 33°45' W 118°17'0 0.0
2016-Apr-27 12:34N 33°45' W 118°17'3 3.1
2016-Apr-27 11:33N 33°43' W 118°15'7 6.9
2016-Apr-27 10:33N 33°36' W 118°18'1312.7
2016-Apr-27 09:33N 33°37' W 118°33'1312.1
2016-Apr-27 08:29N 33°37' W 118°48'1111.9
2016-Apr-27 07:33N 33°38' W 119°02'6312.2
2016-Apr-27 02:26N 33°36' W 120°17'27211.3
2016-Apr-26 02:17N 37°29' W 123°10'810.5
2016-Apr-26 01:33N 37°35' W 123°03'1110.3
2016-Apr-26 00:32N 37°41' W 122°52'1010.1
2016-Apr-25 23:33N 37°43' W 122°40'9 8.7
2016-Apr-25 22:33N 37°48' W 122°31'7 6.6
2016-Apr-25 21:33N 37°54' W 122°27'9 8.6
2016-Apr-25 20:33N 38°02' W 122°22'  

Dump ship's entire track history